sensor_id;sensor_type;location;lat;lon;timestamp;P1;durP1;ratioP1;P2;durP2;ratioP2
45940;SDS011;31858;46.008;8.978;2022-12-18T00:01:59;13.50;;;10.48;;
45940;SDS011;31858;46.008;8.978;2022-12-18T00:12:01;13.90;;;11.05;;
45940;SDS011;31858;46.008;8.978;2022-12-18T00:22:04;12.93;;;10.65;;
45940;SDS011;31858;46.008;8.978;2022-12-18T00:32:06;13.23;;;10.68;;
45940;SDS011;31858;46.008;8.978;2022-12-18T00:42:09;15.45;;;10.98;;
45940;SDS011;31858;46.008;8.978;2022-12-18T00:52:29;13.18;;;10.10;;
45940;SDS011;31858;46.008;8.978;2022-12-18T01:02:32;10.07;;;9.05;;
45940;SDS011;31858;46.008;8.978;2022-12-18T01:12:33;10.60;;;9.02;;
45940;SDS011;31858;46.008;8.978;2022-12-18T01:22:37;12.90;;;9.55;;
45940;SDS011;31858;46.008;8.978;2022-12-18T01:32:39;12.70;;;10.23;;
45940;SDS011;31858;46.008;8.978;2022-12-18T01:42:41;13.65;;;10.55;;
45940;SDS011;31858;46.008;8.978;2022-12-18T01:52:44;14.38;;;9.02;;
45940;SDS011;31858;46.008;8.978;2022-12-18T02:02:51;12.70;;;8.10;;
45940;SDS011;31858;46.008;8.978;2022-12-18T02:12:54;11.10;;;8.77;;
45940;SDS011;31858;46.008;8.978;2022-12-18T02:23:11;9.43;;;8.15;;
45940;SDS011;31858;46.008;8.978;2022-12-18T02:33:25;8.02;;;6.93;;
45940;SDS011;31858;46.008;8.978;2022-12-18T02:43:28;12.05;;;7.80;;
45940;SDS011;31858;46.008;8.978;2022-12-18T02:53:33;10.38;;;7.88;;
45940;SDS011;31858;46.008;8.978;2022-12-18T03:03:41;10.68;;;8.05;;
45940;SDS011;31858;46.008;8.978;2022-12-18T03:13:50;10.73;;;8.57;;
45940;SDS011;31858;46.008;8.978;2022-12-18T03:23:57;10.15;;;8.15;;
45940;SDS011;31858;46.008;8.978;2022-12-18T03:34:00;9.55;;;7.68;;
45940;SDS011;31858;46.008;8.978;2022-12-18T03:44:06;9.05;;;7.95;;
45940;SDS011;31858;46.008;8.978;2022-12-18T03:54:14;9.23;;;7.68;;
45940;SDS011;31858;46.008;8.978;2022-12-18T04:04:17;10.30;;;7.70;;
45940;SDS011;31858;46.008;8.978;2022-12-18T04:14:21;8.52;;;6.88;;
45940;SDS011;31858;46.008;8.978;2022-12-18T04:24:22;6.07;;;5.15;;
45940;SDS011;31858;46.008;8.978;2022-12-18T04:34:25;7.63;;;6.03;;
45940;SDS011;31858;46.008;8.978;2022-12-18T04:44:27;7.75;;;6.75;;
45940;SDS011;31858;46.008;8.978;2022-12-18T04:54:30;8.38;;;6.00;;
45940;SDS011;31858;46.008;8.978;2022-12-18T05:04:31;6.88;;;5.28;;
45940;SDS011;31858;46.008;8.978;2022-12-18T05:14:34;8.02;;;6.68;;
45940;SDS011;31858;46.008;8.978;2022-12-18T05:24:36;6.55;;;5.82;;
45940;SDS011;31858;46.008;8.978;2022-12-18T05:34:39;9.85;;;6.55;;
45940;SDS011;31858;46.008;8.978;2022-12-18T05:44:40;6.75;;;5.93;;
45940;SDS011;31858;46.008;8.978;2022-12-18T05:54:43;10.05;;;7.85;;
45940;SDS011;31858;46.008;8.978;2022-12-18T06:04:45;8.43;;;6.95;;
45940;SDS011;31858;46.008;8.978;2022-12-18T06:14:48;7.30;;;6.22;;
45940;SDS011;31858;46.008;8.978;2022-12-18T06:24:49;7.63;;;5.70;;
45940;SDS011;31858;46.008;8.978;2022-12-18T06:34:52;7.80;;;4.95;;
45940;SDS011;31858;46.008;8.978;2022-12-18T06:44:55;9.50;;;5.40;;
45940;SDS011;31858;46.008;8.978;2022-12-18T06:54:58;7.30;;;6.03;;
45940;SDS011;31858;46.008;8.978;2022-12-18T07:05:00;6.43;;;5.05;;
45940;SDS011;31858;46.008;8.978;2022-12-18T07:15:03;5.65;;;4.70;;
45940;SDS011;31858;46.008;8.978;2022-12-18T07:25:06;7.53;;;5.53;;
45940;SDS011;31858;46.008;8.978;2022-12-18T07:35:10;6.10;;;4.50;;
45940;SDS011;31858;46.008;8.978;2022-12-18T07:45:11;6.55;;;4.90;;
45940;SDS011;31858;46.008;8.978;2022-12-18T07:55:14;5.95;;;4.60;;
45940;SDS011;31858;46.008;8.978;2022-12-18T08:05:16;4.95;;;4.38;;
45940;SDS011;31858;46.008;8.978;2022-12-18T08:15:19;7.10;;;4.75;;
45940;SDS011;31858;46.008;8.978;2022-12-18T08:25:21;5.70;;;5.03;;
45940;SDS011;31858;46.008;8.978;2022-12-18T08:35:24;5.60;;;4.65;;
45940;SDS011;31858;46.008;8.978;2022-12-18T08:45:25;7.32;;;5.63;;
45940;SDS011;31858;46.008;8.978;2022-12-18T08:55:28;8.90;;;6.72;;
45940;SDS011;31858;46.008;8.978;2022-12-18T09:05:30;8.75;;;7.15;;
45940;SDS011;31858;46.008;8.978;2022-12-18T09:15:33;8.60;;;6.95;;
45940;SDS011;31858;46.008;8.978;2022-12-18T09:25:34;7.55;;;6.03;;
45940;SDS011;31858;46.008;8.978;2022-12-18T09:35:41;6.05;;;5.10;;
45940;SDS011;31858;46.008;8.978;2022-12-18T09:45:44;6.85;;;5.32;;
45940;SDS011;31858;46.008;8.978;2022-12-18T09:55:50;6.28;;;5.07;;
45940;SDS011;31858;46.008;8.978;2022-12-18T10:05:56;5.18;;;4.63;;
45940;SDS011;31858;46.008;8.978;2022-12-18T10:16:08;9.43;;;5.97;;
45940;SDS011;31858;46.008;8.978;2022-12-18T10:26:15;7.28;;;5.50;;
45940;SDS011;31858;46.008;8.978;2022-12-18T10:36:18;7.18;;;5.50;;
45940;SDS011;31858;46.008;8.978;2022-12-18T10:46:19;7.05;;;5.78;;
45940;SDS011;31858;46.008;8.978;2022-12-18T10:56:23;7.47;;;5.53;;
45940;SDS011;31858;46.008;8.978;2022-12-18T11:06:26;7.13;;;6.10;;
45940;SDS011;31858;46.008;8.978;2022-12-18T11:16:29;6.20;;;5.25;;
45940;SDS011;31858;46.008;8.978;2022-12-18T11:26:34;6.50;;;4.65;;
45940;SDS011;31858;46.008;8.978;2022-12-18T11:36:39;6.53;;;5.10;;
45940;SDS011;31858;46.008;8.978;2022-12-18T11:46:44;7.78;;;4.70;;
45940;SDS011;31858;46.008;8.978;2022-12-18T11:56:53;5.35;;;4.35;;
45940;SDS011;31858;46.008;8.978;2022-12-18T12:07:02;6.43;;;4.40;;
45940;SDS011;31858;46.008;8.978;2022-12-18T12:17:14;5.07;;;4.38;;
45940;SDS011;31858;46.008;8.978;2022-12-18T12:27:24;7.35;;;5.28;;
45940;SDS011;31858;46.008;8.978;2022-12-18T12:37:40;6.25;;;4.20;;
45940;SDS011;31858;46.008;8.978;2022-12-18T12:47:52;4.55;;;4.07;;
45940;SDS011;31858;46.008;8.978;2022-12-18T12:57:59;5.43;;;4.38;;
45940;SDS011;31858;46.008;8.978;2022-12-18T13:08:08;8.10;;;5.97;;
45940;SDS011;31858;46.008;8.978;2022-12-18T13:18:18;5.88;;;4.97;;
45940;SDS011;31858;46.008;8.978;2022-12-18T13:28:21;5.93;;;4.40;;
45940;SDS011;31858;46.008;8.978;2022-12-18T13:38:32;7.50;;;5.35;;
45940;SDS011;31858;46.008;8.978;2022-12-18T13:48:36;6.05;;;5.40;;
45940;SDS011;31858;46.008;8.978;2022-12-18T13:58:41;7.45;;;5.50;;
45940;SDS011;31858;46.008;8.978;2022-12-18T14:08:43;11.35;;;8.98;;
45940;SDS011;31858;46.008;8.978;2022-12-18T14:18:48;13.20;;;10.68;;
45940;SDS011;31858;46.008;8.978;2022-12-18T14:28:54;13.85;;;10.23;;
45940;SDS011;31858;46.008;8.978;2022-12-18T14:38:57;11.57;;;8.75;;
45940;SDS011;31858;46.008;8.978;2022-12-18T14:48:59;15.80;;;13.18;;
45940;SDS011;31858;46.008;8.978;2022-12-18T14:59:04;17.00;;;13.82;;
45940;SDS011;31858;46.008;8.978;2022-12-18T15:09:20;14.50;;;12.68;;
45940;SDS011;31858;46.008;8.978;2022-12-18T15:19:28;16.77;;;13.50;;
45940;SDS011;31858;46.008;8.978;2022-12-18T15:39:38;15.73;;;12.98;;
45940;SDS011;31858;46.008;8.978;2022-12-18T15:49:40;15.00;;;11.95;;
45940;SDS011;31858;46.008;8.978;2022-12-18T15:59:43;14.73;;;11.20;;
45940;SDS011;31858;46.008;8.978;2022-12-18T16:09:47;19.20;;;13.27;;
45940;SDS011;31858;46.008;8.978;2022-12-18T16:19:50;16.58;;;13.00;;
45940;SDS011;31858;46.008;8.978;2022-12-18T16:29:52;15.38;;;11.95;;
45940;SDS011;31858;46.008;8.978;2022-12-18T16:39:55;12.60;;;10.05;;
45940;SDS011;31858;46.008;8.978;2022-12-18T16:49:56;13.55;;;10.20;;
45940;SDS011;31858;46.008;8.978;2022-12-18T16:59:59;13.25;;;10.18;;
45940;SDS011;31858;46.008;8.978;2022-12-18T17:10:01;14.70;;;11.10;;
45940;SDS011;31858;46.008;8.978;2022-12-18T17:20:07;23.15;;;15.40;;
45940;SDS011;31858;46.008;8.978;2022-12-18T17:30:10;22.50;;;16.50;;
45940;SDS011;31858;46.008;8.978;2022-12-18T17:40:13;23.52;;;16.45;;
45940;SDS011;31858;46.008;8.978;2022-12-18T17:50:15;27.55;;;18.38;;
45940;SDS011;31858;46.008;8.978;2022-12-18T18:00:18;24.63;;;18.70;;
45940;SDS011;31858;46.008;8.978;2022-12-18T18:10:20;19.20;;;15.30;;
45940;SDS011;31858;46.008;8.978;2022-12-18T18:20:24;17.92;;;14.50;;
45940;SDS011;31858;46.008;8.978;2022-12-18T18:30:27;16.08;;;12.25;;
45940;SDS011;31858;46.008;8.978;2022-12-18T18:40:30;16.20;;;11.68;;
45940;SDS011;31858;46.008;8.978;2022-12-18T18:50:32;12.50;;;9.82;;
45940;SDS011;31858;46.008;8.978;2022-12-18T19:00:34;14.93;;;10.80;;
45940;SDS011;31858;46.008;8.978;2022-12-18T19:10:38;13.52;;;10.77;;
45940;SDS011;31858;46.008;8.978;2022-12-18T19:20:42;19.23;;;13.07;;
45940;SDS011;31858;46.008;8.978;2022-12-18T19:30:44;14.43;;;10.55;;
45940;SDS011;31858;46.008;8.978;2022-12-18T19:40:47;14.50;;;10.57;;
45940;SDS011;31858;46.008;8.978;2022-12-18T19:50:49;15.02;;;11.00;;
45940;SDS011;31858;46.008;8.978;2022-12-18T20:00:52;15.40;;;11.32;;
45940;SDS011;31858;46.008;8.978;2022-12-18T20:10:53;16.42;;;11.75;;
45940;SDS011;31858;46.008;8.978;2022-12-18T20:20:56;14.98;;;10.55;;
45940;SDS011;31858;46.008;8.978;2022-12-18T20:30:58;16.20;;;10.48;;
45940;SDS011;31858;46.008;8.978;2022-12-18T20:41:05;13.10;;;10.20;;
45940;SDS011;31858;46.008;8.978;2022-12-18T20:51:08;10.18;;;7.90;;
45940;SDS011;31858;46.008;8.978;2022-12-18T21:01:13;9.15;;;7.95;;
45940;SDS011;31858;46.008;8.978;2022-12-18T21:11:23;9.80;;;7.85;;
45940;SDS011;31858;46.008;8.978;2022-12-18T21:21:46;9.63;;;7.68;;
45940;SDS011;31858;46.008;8.978;2022-12-18T21:31:47;10.95;;;7.50;;
45940;SDS011;31858;46.008;8.978;2022-12-18T21:41:51;10.63;;;7.68;;
45940;SDS011;31858;46.008;8.978;2022-12-18T21:52:10;10.53;;;9.23;;
45940;SDS011;31858;46.008;8.978;2022-12-18T22:02:19;16.23;;;10.07;;
45940;SDS011;31858;46.008;8.978;2022-12-18T22:12:22;12.27;;;8.85;;
45940;SDS011;31858;46.008;8.978;2022-12-18T22:22:36;12.82;;;8.85;;
45940;SDS011;31858;46.008;8.978;2022-12-18T22:32:38;9.88;;;7.63;;
45940;SDS011;31858;46.008;8.978;2022-12-18T22:42:40;10.48;;;7.97;;
45940;SDS011;31858;46.008;8.978;2022-12-18T22:52:42;9.50;;;7.85;;
45940;SDS011;31858;46.008;8.978;2022-12-18T23:02:45;10.00;;;8.32;;
45940;SDS011;31858;46.008;8.978;2022-12-18T23:12:46;13.70;;;9.20;;
45940;SDS011;31858;46.008;8.978;2022-12-18T23:22:49;12.18;;;9.73;;
45940;SDS011;31858;46.008;8.978;2022-12-18T23:32:51;11.50;;;7.82;;
45940;SDS011;31858;46.008;8.978;2022-12-18T23:42:54;16.90;;;11.70;;
45940;SDS011;31858;46.008;8.978;2022-12-18T23:52:57;10.07;;;8.27;;
